Time;durP1;ratioP1;P1;durP2;ratioP2;P2;SDS_P1;SDS_P2;PMS_P1;PMS_P2;Temp;Humidity;BMP_temperature;BMP_pressure;BME280_temperature;BME280_humidity;BME280_pressure;Samples;Min_cycle;Max_cycle;Signal;HPM_P1;HPM_P2
2022/09/08 00:01:10;;;;;;;0.40;0.40;;;;;;;;;;4993526;28;20234;-82
2022/09/08 00:03:39;;;;;;;0.30;0.30;;;;;;;;;;4976410;28;20240;-82
2022/09/08 00:06:10;;;;;;;0.50;0.50;;;;;;;;;;4993942;28;20242;-83
2022/09/08 00:08:39;;;;;;;0.30;0.30;;;;;;;;;;4976943;28;20255;-83
2022/09/08 00:11:08;;;;;;;1.63;1.63;;;;;;;;;;4981222;28;20241;-82
2022/09/08 00:13:39;;;;;;;0.87;0.87;;;;;;;;;;4976475;28;20234;-82
2022/09/08 00:16:08;;;;;;;0.73;0.73;;;;;;;;;;4976908;28;20247;-82
2022/09/08 00:18:38;;;;;;;0.47;0.47;;;;;;;;;;4976107;28;20212;-82
2022/09/08 00:21:06;;;;;;;1.27;1.27;;;;;;;;;;4985141;28;20257;-82
2022/09/08 00:23:35;;;;;;;0.40;0.40;;;;;;;;;;4976987;28;20240;-82
2022/09/08 00:26:03;;;;;;;0.40;0.40;;;;;;;;;;4967117;28;20194;-82
2022/09/08 00:28:32;;;;;;;0.50;0.50;;;;;;;;;;4993139;28;20304;-82
2022/09/08 00:31:03;;;;;;;0.93;0.93;;;;;;;;;;4976522;28;20205;-82
2022/09/08 00:33:32;;;;;;;0.40;0.40;;;;;;;;;;4976297;28;20192;-82
2022/09/08 00:36:03;;;;;;;3.17;2.97;;;;;;;;;;4976686;28;20207;-82
2022/09/08 00:38:32;;;;;;;0.37;0.37;;;;;;;;;;4976006;28;20296;-82
2022/09/08 00:41:02;;;;;;;0.40;0.40;;;;;;;;;;4993455;28;20366;-82
2022/09/08 00:43:32;;;;;;;0.30;0.30;;;;;;;;;;4995522;28;20299;-82
2022/09/08 00:46:05;;;;;;;1.30;1.20;;;;;;;;;;4980071;28;20211;-82
2022/09/08 00:48:38;;;;;;;1.57;1.47;;;;;;;;;;4967905;28;20216;-82
2022/09/08 00:51:06;;;;;;;0.57;0.57;;;;;;;;;;4980033;28;20205;-82
2022/09/08 00:53:37;;;;;;;2.53;2.03;;;;;;;;;;4996906;28;20225;-82
2022/09/08 00:56:06;;;;;;;0.60;0.60;;;;;;;;;;4996749;28;20215;-82
2022/09/08 00:58:36;;;;;;;2.30;2.20;;;;;;;;;;4979349;28;20264;-82
2022/09/08 01:01:06;;;;;;;1.87;1.73;;;;;;;;;;4966893;28;20259;-82
2022/09/08 01:03:36;;;;;;;0.80;0.80;;;;;;;;;;4968796;28;20323;-82
2022/09/08 01:06:11;;;;;;;0.63;0.63;;;;;;;;;;4995780;28;20254;-82
2022/09/08 01:14:19;;;;;;;0.63;0.63;;;;;;;;;;4978146;28;20207;-82
2022/09/08 01:16:49;;;;;;;0.83;0.83;;;;;;;;;;4973376;28;20196;-82
2022/09/08 01:19:19;;;;;;;0.40;0.40;;;;;;;;;;4966928;28;20202;-81
2022/09/08 01:21:54;;;;;;;1.10;1.10;;;;;;;;;;4979306;28;20204;-82
2022/09/08 01:24:41;;;;;;;0.50;0.50;;;;;;;;;;4979130;28;20261;-82
2022/09/08 01:27:15;;;;;;;1.07;0.77;;;;;;;;;;4996197;28;20214;-82
2022/09/08 01:29:44;;;;;;;0.30;0.30;;;;;;;;;;4979043;28;20224;-82
2022/09/08 01:32:14;;;;;;;0.30;0.30;;;;;;;;;;4996509;28;20231;-82
2022/09/08 01:34:44;;;;;;;0.63;0.63;;;;;;;;;;4978822;28;20211;-82
2022/09/08 01:37:12;;;;;;;0.30;0.30;;;;;;;;;;4966828;28;20287;-82
2022/09/08 01:39:41;;;;;;;0.30;0.30;;;;;;;;;;4978111;28;20227;-82
2022/09/08 01:42:09;;;;;;;0.40;0.40;;;;;;;;;;4995912;28;20200;-82
2022/09/08 01:44:39;;;;;;;0.40;0.40;;;;;;;;;;4978656;28;20207;-82
2022/09/08 01:47:07;;;;;;;0.50;0.50;;;;;;;;;;4978729;28;20304;-82
2022/09/08 01:49:36;;;;;;;0.30;0.30;;;;;;;;;;4978657;28;20244;-82
2022/09/08 01:52:04;;;;;;;0.50;0.50;;;;;;;;;;4996313;28;20237;-82
2022/09/08 01:54:34;;;;;;;0.30;0.30;;;;;;;;;;4978070;28;20218;-82
2022/09/08 01:57:02;;;;;;;4.33;1.20;;;;;;;;;;4978776;28;20207;-82
2022/09/08 01:59:31;;;;;;;0.30;0.30;;;;;;;;;;4978395;28;20268;-82
2022/09/08 02:02:02;;;;;;;0.50;0.50;;;;;;;;;;4976964;28;20331;-81
2022/09/08 02:04:31;;;;;;;0.30;0.30;;;;;;;;;;4994978;28;20243;-82
2022/09/08 02:06:59;;;;;;;2.10;1.73;;;;;;;;;;4978379;28;20251;-82
2022/09/08 02:09:28;;;;;;;0.50;0.47;;;;;;;;;;4995199;28;20278;-82
2022/09/08 02:11:56;;;;;;;0.40;0.40;;;;;;;;;;4978411;28;20205;-82
2022/09/08 02:14:25;;;;;;;0.80;0.80;;;;;;;;;;4995542;28;20283;-82
2022/09/08 02:16:53;;;;;;;0.40;0.40;;;;;;;;;;4977990;28;20299;-82
2022/09/08 02:19:23;;;;;;;0.40;0.40;;;;;;;;;;4978044;28;20229;-82
2022/09/08 02:21:52;;;;;;;0.47;0.47;;;;;;;;;;4977986;28;20268;-81
2022/09/08 02:24:20;;;;;;;0.50;0.50;;;;;;;;;;4977685;28;20224;-81
2022/09/08 02:26:50;;;;;;;0.40;0.40;;;;;;;;;;4978061;28;20283;-82
2022/09/08 02:29:19;;;;;;;10.10;3.30;;;;;;;;;;4977882;28;20214;-82
2022/09/08 02:31:47;;;;;;;5.13;3.07;;;;;;;;;;4978060;28;20196;-82
2022/09/08 02:34:15;;;;;;;2.40;1.47;;;;;;;;;;4995072;28;20205;-82
2022/09/08 02:36:45;;;;;;;2.27;0.90;;;;;;;;;;4978123;28;20287;-82
2022/09/08 02:39:16;;;;;;;0.73;0.73;;;;;;;;;;4977646;28;20196;-82
2022/09/08 02:41:44;;;;;;;3.33;0.70;;;;;;;;;;4977379;28;20243;-81
2022/09/08 02:44:13;;;;;;;0.60;0.60;;;;;;;;;;4995263;28;20205;-82
2022/09/08 02:46:42;;;;;;;1.43;1.40;;;;;;;;;;4977759;28;20220;-82
2022/09/08 02:49:11;;;;;;;0.60;0.60;;;;;;;;;;4994998;28;20240;-82
2022/09/08 02:51:39;;;;;;;1.07;1.07;;;;;;;;;;4977434;28;20205;-82
2022/09/08 02:54:09;;;;;;;1.00;1.00;;;;;;;;;;4977293;28;20283;-82
2022/09/08 02:56:37;;;;;;;0.40;0.40;;;;;;;;;;4961430;28;20197;-82
2022/09/08 02:59:06;;;;;;;2.97;2.67;;;;;;;;;;4976477;28;20197;-82
2022/09/08 03:01:34;;;;;;;5.97;4.37;;;;;;;;;;4976989;28;20251;-82
2022/09/08 03:04:03;;;;;;;0.90;0.90;;;;;;;;;;4977349;28;20316;-82
2022/09/08 03:06:32;;;;;;;0.93;0.93;;;;;;;;;;4977078;28;20200;-82
2022/09/08 03:09:00;;;;;;;1.13;1.13;;;;;;;;;;4971221;28;20241;-82
2022/09/08 03:11:31;;;;;;;1.23;1.23;;;;;;;;;;4970742;28;20203;-82
2022/09/08 03:14:00;;;;;;;4.23;3.30;;;;;;;;;;4982331;28;20204;-82
2022/09/08 03:16:28;;;;;;;7.57;4.27;;;;;;;;;;4977080;28;20224;-82
2022/09/08 03:18:57;;;;;;;5.77;4.60;;;;;;;;;;4994157;28;20268;-82
2022/09/08 03:21:26;;;;;;;10.00;6.40;;;;;;;;;;4977171;28;20298;-82
2022/09/08 03:23:54;;;;;;;7.37;6.57;;;;;;;;;;4971563;28;20231;-82
2022/09/08 03:26:24;;;;;;;12.17;7.80;;;;;;;;;;4974834;28;20229;-82
2022/09/08 03:28:54;;;;;;;11.73;6.80;;;;;;;;;;4993808;28;20299;-82
2022/09/08 03:31:26;;;;;;;13.17;7.07;;;;;;;;;;4993012;28;20227;-82
2022/09/08 03:33:55;;;;;;;12.53;8.07;;;;;;;;;;4993844;28;20231;-82
2022/09/08 03:36:23;;;;;;;6.67;3.33;;;;;;;;;;4976762;28;20243;-82
2022/09/08 03:38:51;;;;;;;10.87;7.40;;;;;;;;;;4976607;28;20239;-81
2022/09/08 03:41:22;;;;;;;8.07;5.70;;;;;;;;;;4994005;28;20295;-82
2022/09/08 03:43:51;;;;;;;14.53;7.37;;;;;;;;;;4976814;28;20226;-81
2022/09/08 03:46:22;;;;;;;9.67;5.77;;;;;;;;;;4993976;28;20200;-82
2022/09/08 03:48:50;;;;;;;9.60;6.03;;;;;;;;;;4976528;28;20199;-82
2022/09/08 03:51:22;;;;;;;9.87;6.53;;;;;;;;;;4976764;28;20257;-82
2022/09/08 03:53:51;;;;;;;7.63;5.67;;;;;;;;;;4976072;28;20207;-81
2022/09/08 03:56:20;;;;;;;1.90;1.80;;;;;;;;;;4976998;28;20196;-82
2022/09/08 03:58:49;;;;;;;7.77;4.73;;;;;;;;;;4993475;28;20219;-82
2022/09/08 04:01:18;;;;;;;8.10;5.57;;;;;;;;;;4965233;28;20225;-81
2022/09/08 04:03:48;;;;;;;8.20;2.97;;;;;;;;;;4992135;28;20213;-82
2022/09/08 04:06:16;;;;;;;0.30;0.30;;;;;;;;;;4976215;28;20201;-82
2022/09/08 04:08:45;;;;;;;0.50;0.50;;;;;;;;;;4976582;28;20204;-82
2022/09/08 04:11:14;;;;;;;0.57;0.57;;;;;;;;;;4976580;28;20224;-82
2022/09/08 04:13:42;;;;;;;1.43;1.43;;;;;;;;;;4976763;28;20283;-82
2022/09/08 04:16:11;;;;;;;0.30;0.30;;;;;;;;;;4994144;28;20200;-81
2022/09/08 04:18:39;;;;;;;4.90;1.83;;;;;;;;;;4997981;28;20246;-82
2022/09/08 04:21:09;;;;;;;3.07;2.77;;;;;;;;;;4980621;28;20208;-81
2022/09/08 04:23:37;;;;;;;7.37;4.50;;;;;;;;;;4997749;28;20200;-82
2022/09/08 04:26:07;;;;;;;10.93;6.20;;;;;;;;;;4980183;28;20289;-82
2022/09/08 04:28:36;;;;;;;10.60;6.17;;;;;;;;;;4980552;28;20299;-82
2022/09/08 04:31:06;;;;;;;13.17;6.33;;;;;;;;;;4976291;28;20251;-82
2022/09/08 04:33:35;;;;;;;6.77;3.23;;;;;;;;;;4971219;28;20208;-82
2022/09/08 04:36:09;;;;;;;12.67;8.17;;;;;;;;;;4979701;28;20200;-82
2022/09/08 04:38:54;;;;;;;8.50;4.33;;;;;;;;;;4979419;28;20204;-81
2022/09/08 04:41:23;;;;;;;7.00;3.73;;;;;;;;;;4979751;28;20196;-81
2022/09/08 04:43:51;;;;;;;6.60;4.13;;;;;;;;;;4979627;28;20208;-82
2022/09/08 04:46:20;;;;;;;16.20;8.03;;;;;;;;;;4997218;28;20208;-82
2022/09/08 04:48:49;;;;;;;9.87;8.13;;;;;;;;;;4980375;28;20200;-81
2022/09/08 04:51:20;;;;;;;11.93;8.13;;;;;;;;;;4979080;28;20307;-82
2022/09/08 04:53:51;;;;;;;15.30;10.43;;;;;;;;;;4979540;28;20204;-82
2022/09/08 04:56:20;;;;;;;16.00;9.43;;;;;;;;;;4979672;28;20250;-82
2022/09/08 04:58:49;;;;;;;8.13;5.83;;;;;;;;;;4979618;28;20203;-82
2022/09/08 05:01:24;;;;;;;15.13;9.20;;;;;;;;;;4996803;28;20228;-82
2022/09/08 05:03:53;;;;;;;17.43;11.73;;;;;;;;;;4996991;28;20222;-82
2022/09/08 05:06:23;;;;;;;14.53;9.40;;;;;;;;;;4996649;28;20254;-82
2022/09/08 05:08:54;;;;;;;3.40;2.83;;;;;;;;;;4996599;28;20197;-82
2022/09/08 05:11:26;;;;;;;18.03;10.00;;;;;;;;;;4979081;28;20219;-82
2022/09/08 05:13:54;;;;;;;13.83;10.10;;;;;;;;;;4996782;28;20250;-82
2022/09/08 05:16:24;;;;;;;16.77;12.23;;;;;;;;;;4983513;28;20208;-82
2022/09/08 05:18:54;;;;;;;13.57;8.97;;;;;;;;;;4987295;28;20215;-82
2022/09/08 05:21:24;;;;;;;14.80;10.17;;;;;;;;;;4976737;28;20200;-82
2022/09/08 05:23:53;;;;;;;17.83;9.87;;;;;;;;;;4968809;28;20212;-82
2022/09/08 05:26:22;;;;;;;17.47;10.00;;;;;;;;;;4977480;28;20204;-82
2022/09/08 05:28:51;;;;;;;16.97;10.83;;;;;;;;;;4978321;28;20231;-82
2022/09/08 05:31:20;;;;;;;20.90;14.60;;;;;;;;;;4978692;28;20246;-82
2022/09/08 05:33:49;;;;;;;22.80;13.13;;;;;;;;;;4967246;28;20212;-82
2022/09/08 05:36:18;;;;;;;21.10;10.83;;;;;;;;;;4978895;28;20223;-82
2022/09/08 05:38:49;;;;;;;13.37;7.13;;;;;;;;;;4979032;28;20232;-82
2022/09/08 05:41:17;;;;;;;18.63;12.27;;;;;;;;;;4996176;28;20280;-82
2022/09/08 05:43:46;;;;;;;21.67;15.67;;;;;;;;;;4978688;28;20274;-82
2022/09/08 05:46:16;;;;;;;10.30;8.80;;;;;;;;;;4978714;28;20255;-82
2022/09/08 05:48:47;;;;;;;20.83;12.40;;;;;;;;;;4978640;28;20212;-82
2022/09/08 05:51:21;;;;;;;22.03;15.83;;;;;;;;;;4978397;28;20311;-82
2022/09/08 05:53:51;;;;;;;18.50;12.20;;;;;;;;;;4978835;28;20196;-83
2022/09/08 05:56:19;;;;;;;15.93;11.20;;;;;;;;;;4978363;28;20208;-82
2022/09/08 05:58:51;;;;;;;17.50;11.90;;;;;;;;;;4978880;28;20193;-82
2022/09/08 06:01:25;;;;;;;21.47;13.73;;;;;;;;;;4977943;28;20228;-81
2022/09/08 06:03:54;;;;;;;11.93;8.60;;;;;;;;;;4966231;28;20227;-81
2022/09/08 06:06:23;;;;;;;19.00;10.80;;;;;;;;;;4978284;28;20227;-81
2022/09/08 06:08:55;;;;;;;20.60;10.83;;;;;;;;;;4959415;28;20230;-81
2022/09/08 06:11:23;;;;;;;17.93;10.67;;;;;;;;;;4973314;28;20270;-82
2022/09/08 06:13:52;;;;;;;19.30;11.83;;;;;;;;;;4995606;28;20228;-82
2022/09/08 06:16:21;;;;;;;3.47;3.17;;;;;;;;;;4978050;28;20239;-82
2022/09/08 06:18:50;;;;;;;11.50;5.97;;;;;;;;;;4995723;28;20204;-82
2022/09/08 06:21:20;;;;;;;15.57;10.27;;;;;;;;;;4978082;28;20200;-81
2022/09/08 06:23:51;;;;;;;11.30;7.27;;;;;;;;;;4985583;28;20207;-81
2022/09/08 06:26:38;;;;;;;7.67;6.63;;;;;;;;;;4992337;28;20262;-82
2022/09/08 06:29:11;;;;;;;15.97;9.70;;;;;;;;;;4971628;28;20240;-82
2022/09/08 06:31:43;;;;;;;7.77;4.60;;;;;;;;;;4991816;28;20223;-82
2022/09/08 06:34:14;;;;;;;8.23;5.47;;;;;;;;;;4960731;28;20224;-84
2022/09/08 06:36:48;;;;;;;7.40;4.87;;;;;;;;;;4970170;28;20208;-85
2022/09/08 06:39:20;;;;;;;8.40;4.57;;;;;;;;;;4963945;28;20211;-85
2022/09/08 06:41:51;;;;;;;4.33;3.57;;;;;;;;;;4962754;28;20196;-83
2022/09/08 06:44:26;;;;;;;9.00;4.70;;;;;;;;;;4964095;28;20303;-86
2022/09/08 06:46:55;;;;;;;6.23;4.27;;;;;;;;;;4967660;28;20202;-86
2022/09/08 06:49:26;;;;;;;9.83;5.83;;;;;;;;;;4987264;28;20210;-86
2022/09/08 06:52:00;;;;;;;6.17;3.20;;;;;;;;;;4965836;28;20227;-85
2022/09/08 06:54:38;;;;;;;6.30;3.87;;;;;;;;;;4978009;28;20221;-85
2022/09/08 06:57:13;;;;;;;6.20;3.90;;;;;;;;;;4965948;28;20259;-85
2022/09/08 07:00:02;;;;;;;11.23;5.00;;;;;;;;;;4978663;28;20226;-82
2022/09/08 07:02:52;;;;;;;7.10;5.10;;;;;;;;;;4988468;28;20269;-82
2022/09/08 07:05:31;;;;;;;6.17;4.73;;;;;;;;;;4992982;28;20199;-85
2022/09/08 07:08:02;;;;;;;11.40;5.07;;;;;;;;;;4982611;28;20291;-85
2022/09/08 07:10:36;;;;;;;7.03;4.33;;;;;;;;;;4979217;28;20259;-85
2022/09/08 07:13:09;;;;;;;9.07;4.10;;;;;;;;;;4967237;28;20334;-83
2022/09/08 07:15:46;;;;;;;3.43;2.70;;;;;;;;;;4979279;28;20208;-82
2022/09/08 07:18:19;;;;;;;4.53;2.23;;;;;;;;;;4983071;28;20200;-84
2022/09/08 07:20:50;;;;;;;3.63;2.23;;;;;;;;;;4991108;28;20201;-83
2022/09/08 07:23:21;;;;;;;2.70;2.30;;;;;;;;;;4963166;28;20259;-82
2022/09/08 07:25:53;;;;;;;4.47;1.97;;;;;;;;;;4979960;28;20193;-82
2022/09/08 07:28:22;;;;;;;5.43;1.83;;;;;;;;;;4966647;28;20228;-83
2022/09/08 07:30:56;;;;;;;2.00;1.67;;;;;;;;;;4986782;28;20204;-84
2022/09/08 07:33:26;;;;;;;1.80;1.40;;;;;;;;;;4964699;28;20208;-84
2022/09/08 07:35:58;;;;;;;4.43;2.10;;;;;;;;;;4987687;28;20201;-86
2022/09/08 07:38:30;;;;;;;3.70;1.70;;;;;;;;;;4963816;28;20312;-85
2022/09/08 07:40:59;;;;;;;3.83;3.50;;;;;;;;;;4965378;28;20239;-84
2022/09/08 07:43:28;;;;;;;3.97;2.53;;;;;;;;;;4977500;28;20197;-83
2022/09/08 07:46:03;;;;;;;5.13;4.07;;;;;;;;;;4978364;28;20370;-83
2022/09/08 07:48:34;;;;;;;6.77;3.37;;;;;;;;;;4984227;28;20215;-83
2022/09/08 07:51:06;;;;;;;7.27;4.70;;;;;;;;;;4977529;28;20205;-84
2022/09/08 07:53:49;;;;;;;5.70;4.27;;;;;;;;;;4982758;28;20201;-83
2022/09/08 07:56:20;;;;;;;5.73;4.30;;;;;;;;;;4963485;28;20211;-84
2022/09/08 07:58:52;;;;;;;6.83;4.43;;;;;;;;;;4978864;28;20204;-82
2022/09/08 08:01:29;;;;;;;6.33;4.50;;;;;;;;;;4977846;28;20230;-81
2022/09/08 08:04:05;;;;;;;1.50;1.27;;;;;;;;;;4978448;28;20278;-84
2022/09/08 08:06:38;;;;;;;5.73;3.63;;;;;;;;;;4966206;28;20294;-85
2022/09/08 08:09:11;;;;;;;4.37;3.50;;;;;;;;;;4957978;28;20215;-84
2022/09/08 08:11:43;;;;;;;5.80;5.10;;;;;;;;;;4956391;28;20230;-85
2022/09/08 08:14:17;;;;;;;6.40;4.57;;;;;;;;;;4968550;28;20216;-82
2022/09/08 08:16:51;;;;;;;5.83;3.20;;;;;;;;;;4974685;28;20204;-84
2022/09/08 08:19:28;;;;;;;9.20;3.37;;;;;;;;;;4965222;28;20204;-83
2022/09/08 08:22:01;;;;;;;7.97;5.47;;;;;;;;;;4981572;28;20275;-84
2022/09/08 08:24:33;;;;;;;6.50;4.33;;;;;;;;;;4960092;28;20205;-82
2022/09/08 08:27:05;;;;;;;8.10;6.43;;;;;;;;;;4975661;28;20212;-80
2022/09/08 08:29:56;;;;;;;6.97;5.73;;;;;;;;;;4978875;28;20212;-85
2022/09/08 08:32:28;;;;;;;9.23;7.17;;;;;;;;;;4955918;28;20212;-84
2022/09/08 08:35:16;;;;;;;9.13;7.10;;;;;;;;;;4976328;28;20200;-84
2022/09/08 08:37:53;;;;;;;7.57;5.40;;;;;;;;;;4961581;28;20308;-82
2022/09/08 08:40:29;;;;;;;8.80;6.80;;;;;;;;;;4963927;28;20299;-83
2022/09/08 08:43:14;;;;;;;7.50;6.80;;;;;;;;;;4960637;28;20207;-83
2022/09/08 08:45:48;;;;;;;9.97;6.57;;;;;;;;;;4978832;28;20209;-81
2022/09/08 08:48:29;;;;;;;8.33;6.77;;;;;;;;;;4975336;28;20233;-83
2022/09/08 08:51:18;;;;;;;10.17;9.17;;;;;;;;;;4962107;28;20338;-85
2022/09/08 08:53:53;;;;;;;12.63;10.97;;;;;;;;;;4983633;28;20306;-83
2022/09/08 08:56:31;;;;;;;6.00;5.07;;;;;;;;;;4964734;28;20251;-84
2022/09/08 08:59:18;;;;;;;8.83;7.20;;;;;;;;;;4957112;28;20307;-85
2022/09/08 09:01:52;;;;;;;9.50;8.50;;;;;;;;;;4940367;28;20228;-85
2022/09/08 09:04:33;;;;;;;11.00;9.83;;;;;;;;;;4962274;28;20232;-85
2022/09/08 09:07:20;;;;;;;16.20;11.37;;;;;;;;;;4965669;28;20203;-83
2022/09/08 09:09:55;;;;;;;15.97;11.77;;;;;;;;;;4965948;28;20202;-85
2022/09/08 09:12:32;;;;;;;14.77;13.37;;;;;;;;;;4961868;28;20216;-83
2022/09/08 09:15:22;;;;;;;11.47;9.97;;;;;;;;;;4980093;28;20204;-83
2022/09/08 09:18:35;;;;;;;7.93;5.73;;;;;;;;;;4972986;28;20213;-84
2022/09/08 09:21:06;;;;;;;11.80;10.70;;;;;;;;;;4981313;28;20189;-83
2022/09/08 09:23:40;;;;;;;5.93;4.30;;;;;;;;;;4981756;28;20210;-83
2022/09/08 09:26:16;;;;;;;14.53;11.77;;;;;;;;;;4981669;28;20220;-83
2022/09/08 09:28:55;;;;;;;5.80;4.93;;;;;;;;;;4969770;28;20207;-81
2022/09/08 09:31:35;;;;;;;9.83;7.60;;;;;;;;;;4979837;28;20208;-81
2022/09/08 09:34:12;;;;;;;14.10;11.93;;;;;;;;;;4982818;28;20215;-82
2022/09/08 09:36:52;;;;;;;12.90;11.40;;;;;;;;;;4980371;28;20219;-82
2022/09/08 09:39:38;;;;;;;13.17;12.07;;;;;;;;;;4966067;28;20231;-83
2022/09/08 09:42:28;;;;;;;12.23;9.47;;;;;;;;;;4955409;28;20206;-83
2022/09/08 09:45:14;;;;;;;2.73;2.53;;;;;;;;;;4978933;28;20217;-82
2022/09/08 09:47:53;;;;;;;9.20;8.40;;;;;;;;;;4985633;28;20208;-82
2022/09/08 09:50:39;;;;;;;4.53;4.03;;;;;;;;;;4982771;28;20304;-81
2022/09/08 09:53:18;;;;;;;6.73;6.03;;;;;;;;;;4979905;28;20223;-82
2022/09/08 09:56:16;;;;;;;6.97;6.37;;;;;;;;;;4984056;28;20203;-82
2022/09/08 09:58:56;;;;;;;4.63;4.17;;;;;;;;;;4965008;28;20233;-82
2022/09/08 10:01:38;;;;;;;4.60;3.97;;;;;;;;;;4965544;28;20314;-84
2022/09/08 10:04:26;;;;;;;4.67;3.80;;;;;;;;;;4982344;28;20200;-83
2022/09/08 10:07:18;;;;;;;7.03;4.17;;;;;;;;;;4984661;28;20281;-83
2022/09/08 10:10:01;;;;;;;4.30;3.37;;;;;;;;;;4950670;28;20286;-82
2022/09/08 10:12:42;;;;;;;4.77;4.23;;;;;;;;;;4977982;28;20220;-83
2022/09/08 10:15:35;;;;;;;5.23;3.97;;;;;;;;;;4981764;28;20211;-83
2022/09/08 10:18:33;;;;;;;4.73;4.03;;;;;;;;;;4967935;28;20200;-84
2022/09/08 10:21:22;;;;;;;5.30;4.13;;;;;;;;;;4974364;28;20211;-81
2022/09/08 10:24:22;;;;;;;0.83;0.83;;;;;;;;;;4973767;28;20205;-82
2022/09/08 10:27:15;;;;;;;3.63;3.03;;;;;;;;;;4977946;28;20206;-82
2022/09/08 10:29:55;;;;;;;2.13;1.93;;;;;;;;;;4968134;28;20214;-83
2022/09/08 10:32:54;;;;;;;1.53;1.43;;;;;;;;;;4969735;28;20324;-83
2022/09/08 10:35:31;;;;;;;1.80;1.67;;;;;;;;;;4967126;28;20217;-84
2022/09/08 10:38:17;;;;;;;4.67;2.77;;;;;;;;;;4977076;28;20201;-83
2022/09/08 10:40:54;;;;;;;4.23;2.10;;;;;;;;;;4981168;28;20299;-83
2022/09/08 10:43:37;;;;;;;2.40;2.20;;;;;;;;;;4978042;28;20191;-83
2022/09/08 10:46:24;;;;;;;8.70;4.83;;;;;;;;;;4977187;28;20201;-83
2022/09/08 10:49:05;;;;;;;3.73;3.33;;;;;;;;;;4974372;28;20207;-83
2022/09/08 10:51:53;;;;;;;14.20;3.03;;;;;;;;;;4958101;28;20242;-85
2022/09/08 10:54:39;;;;;;;4.87;4.33;;;;;;;;;;4973428;28;20241;-83
2022/09/08 10:57:19;;;;;;;9.47;5.77;;;;;;;;;;4985667;28;20223;-83
2022/09/08 10:59:54;;;;;;;7.77;4.17;;;;;;;;;;4977321;28;20219;-83
2022/09/08 11:02:31;;;;;;;3.10;2.87;;;;;;;;;;4979777;28;20243;-83
2022/09/08 11:05:19;;;;;;;5.03;4.53;;;;;;;;;;4976846;28;20215;-83
2022/09/08 11:07:57;;;;;;;4.17;3.20;;;;;;;;;;4975391;28;20208;-84
2022/09/08 11:10:31;;;;;;;1.83;1.73;;;;;;;;;;4978180;28;20214;-83
2022/09/08 11:13:12;;;;;;;3.73;3.00;;;;;;;;;;4979211;28;20228;-83
2022/09/08 11:15:58;;;;;;;1.73;1.63;;;;;;;;;;4957869;28;20201;-83
2022/09/08 11:18:36;;;;;;;3.37;2.27;;;;;;;;;;4989953;28;20291;-83
2022/09/08 11:21:05;;;;;;;0.63;0.63;;;;;;;;;;4975463;28;20239;-83
2022/09/08 11:23:55;;;;;;;1.10;1.10;;;;;;;;;;4971365;28;20222;-83
2022/09/08 11:26:34;;;;;;;8.23;6.73;;;;;;;;;;4982487;28;20216;-83
2022/09/08 11:29:05;;;;;;;1.70;1.10;;;;;;;;;;4987771;28;20315;-83
2022/09/08 11:31:37;;;;;;;3.00;1.60;;;;;;;;;;4965365;28;20193;-83
2022/09/08 11:34:25;;;;;;;7.20;2.23;;;;;;;;;;4968407;28;20209;-84
2022/09/08 11:37:05;;;;;;;2.47;2.13;;;;;;;;;;4976771;28;20201;-84
2022/09/08 11:39:45;;;;;;;3.67;1.80;;;;;;;;;;4965003;28;20208;-85
2022/09/08 11:42:20;;;;;;;2.03;1.47;;;;;;;;;;4976998;28;20213;-84
2022/09/08 11:44:51;;;;;;;2.63;1.17;;;;;;;;;;4971588;28;20195;-84
2022/09/08 11:47:46;;;;;;;1.37;1.27;;;;;;;;;;4945056;28;20214;-84
2022/09/08 11:50:33;;;;;;;0.47;0.47;;;;;;;;;;4968313;28;20260;-84
2022/09/08 11:53:28;;;;;;;1.27;1.13;;;;;;;;;;4968761;28;20212;-83
2022/09/08 11:56:31;;;;;;;3.93;2.03;;;;;;;;;;4979953;28;20202;-84
2022/09/08 11:59:14;;;;;;;0.90;0.90;;;;;;;;;;4964214;28;20202;-84
2022/09/08 12:01:48;;;;;;;2.53;2.33;;;;;;;;;;4960468;28;20284;-84
2022/09/08 12:04:24;;;;;;;5.67;2.03;;;;;;;;;;4961207;28;20235;-84
2022/09/08 12:07:07;;;;;;;5.57;1.80;;;;;;;;;;4961203;28;20210;-81
2022/09/08 12:09:46;;;;;;;0.80;0.80;;;;;;;;;;4967404;28;20263;-83
2022/09/08 12:12:27;;;;;;;1.70;1.27;;;;;;;;;;4976787;28;20223;-85
2022/09/08 12:15:15;;;;;;;3.13;1.83;;;;;;;;;;4972136;28;20321;-83
2022/09/08 12:17:54;;;;;;;1.60;1.50;;;;;;;;;;4968795;28;20196;-82
2022/09/08 12:20:29;;;;;;;2.47;1.90;;;;;;;;;;4965747;28;20203;-84
2022/09/08 12:23:05;;;;;;;4.43;1.97;;;;;;;;;;4969786;28;20201;-83
2022/09/08 12:25:51;;;;;;;4.23;2.67;;;;;;;;;;4978857;28;20188;-84
2022/09/08 12:28:53;;;;;;;1.93;1.47;;;;;;;;;;4973769;28;20216;-84
2022/09/08 12:31:27;;;;;;;7.47;2.80;;;;;;;;;;4983442;28;20205;-84
2022/09/08 12:34:22;;;;;;;4.53;1.77;;;;;;;;;;4961046;28;20245;-85
2022/09/08 12:36:53;;;;;;;3.27;1.27;;;;;;;;;;4979798;28;20202;-84
2022/09/08 12:39:32;;;;;;;1.67;1.57;;;;;;;;;;4967352;28;20204;-85
2022/09/08 12:42:05;;;;;;;4.20;2.20;;;;;;;;;;4966692;28;20213;-84
2022/09/08 12:44:40;;;;;;;4.13;1.30;;;;;;;;;;4985735;28;20198;-86
2022/09/08 12:47:17;;;;;;;1.67;1.57;;;;;;;;;;4988407;28;20211;-85
2022/09/08 12:49:55;;;;;;;2.00;1.10;;;;;;;;;;4991874;28;20207;-85
2022/09/08 12:52:31;;;;;;;2.17;1.77;;;;;;;;;;4974162;28;20215;-84
2022/09/08 12:55:04;;;;;;;2.63;2.13;;;;;;;;;;4985927;28;20278;-84
2022/09/08 12:57:42;;;;;;;4.07;3.77;;;;;;;;;;4967183;28;20245;-84
2022/09/08 13:00:12;;;;;;;3.67;1.27;;;;;;;;;;4972474;28;20300;-84
2022/09/08 13:02:51;;;;;;;2.00;1.00;;;;;;;;;;4982357;28;20263;-84
2022/09/08 13:05:27;;;;;;;0.70;0.70;;;;;;;;;;4964827;28;20231;-83
2022/09/08 13:08:01;;;;;;;8.20;1.90;;;;;;;;;;4983173;28;20285;-83
2022/09/08 13:10:33;;;;;;;1.97;1.07;;;;;;;;;;4962186;28;20295;-84
2022/09/08 13:13:32;;;;;;;1.90;1.07;;;;;;;;;;4969814;28;20286;-85
2022/09/08 13:16:11;;;;;;;4.17;1.50;;;;;;;;;;4987796;28;20266;-85
2022/09/08 13:18:40;;;;;;;3.83;1.93;;;;;;;;;;4983736;28;20195;-85
2022/09/08 13:21:13;;;;;;;1.50;0.83;;;;;;;;;;4993167;28;20225;-85
2022/09/08 13:23:48;;;;;;;1.70;0.93;;;;;;;;;;4973989;28;20257;-85
2022/09/08 13:26:24;;;;;;;1.83;1.60;;;;;;;;;;4975285;28;20271;-85
2022/09/08 13:29:08;;;;;;;5.53;2.27;;;;;;;;;;4988222;28;20285;-85
2022/09/08 13:32:03;;;;;;;3.20;1.47;;;;;;;;;;4970323;28;20208;-85
2022/09/08 13:34:41;;;;;;;6.07;2.40;;;;;;;;;;4964135;28;20252;-84
2022/09/08 13:37:17;;;;;;;6.80;2.17;;;;;;;;;;4972161;28;20211;-85
2022/09/08 13:39:52;;;;;;;2.83;1.40;;;;;;;;;;4979182;28;20199;-85
2022/09/08 13:42:39;;;;;;;2.40;1.37;;;;;;;;;;4978835;28;20207;-85
2022/09/08 13:45:15;;;;;;;4.10;1.90;;;;;;;;;;4978799;28;20201;-85
2022/09/08 13:47:52;;;;;;;2.50;1.80;;;;;;;;;;4972406;28;20237;-85
2022/09/08 13:50:41;;;;;;;4.03;2.33;;;;;;;;;;4990401;28;20215;-85
2022/09/08 13:53:30;;;;;;;1.20;0.67;;;;;;;;;;4995712;28;20232;-85
2022/09/08 13:56:05;;;;;;;1.83;0.87;;;;;;;;;;4978345;28;20274;-85
2022/09/08 13:58:38;;;;;;;2.20;0.97;;;;;;;;;;4978214;28;20255;-85
2022/09/08 14:01:14;;;;;;;4.23;1.83;;;;;;;;;;4995556;28;20247;-85
2022/09/08 14:03:51;;;;;;;9.20;1.30;;;;;;;;;;4977692;28;20282;-85
2022/09/08 14:06:20;;;;;;;1.53;1.17;;;;;;;;;;4978843;28;20211;-85
2022/09/08 14:08:53;;;;;;;6.17;2.07;;;;;;;;;;4977392;28;20200;-84
2022/09/08 14:11:30;;;;;;;6.20;1.53;;;;;;;;;;4978310;28;20235;-85
2022/09/08 14:14:18;;;;;;;6.33;1.47;;;;;;;;;;4995509;28;20270;-85
2022/09/08 14:16:46;;;;;;;1.33;1.10;;;;;;;;;;4995262;28;20237;-85
2022/09/08 14:19:40;;;;;;;1.27;0.90;;;;;;;;;;4978318;28;20210;-85
2022/09/08 14:22:15;;;;;;;0.40;0.40;;;;;;;;;;4977969;28;20203;-85
2022/09/08 14:24:47;;;;;;;3.30;1.23;;;;;;;;;;4977903;28;20191;-85
2022/09/08 14:27:24;;;;;;;1.10;1.00;;;;;;;;;;4977452;28;20256;-85
2022/09/08 14:30:04;;;;;;;2.47;1.60;;;;;;;;;;4983398;28;20208;-85
2022/09/08 14:32:46;;;;;;;2.00;1.60;;;;;;;;;;4978192;28;20205;-85
2022/09/08 14:35:29;;;;;;;2.40;1.80;;;;;;;;;;4978172;28;20239;-85
2022/09/08 14:38:05;;;;;;;6.33;1.90;;;;;;;;;;4977602;28;20216;-84
2022/09/08 14:40:38;;;;;;;1.40;1.10;;;;;;;;;;4978339;28;20215;-84
2022/09/08 14:43:14;;;;;;;3.23;1.90;;;;;;;;;;4977742;28;20258;-84
2022/09/08 14:45:46;;;;;;;3.47;1.53;;;;;;;;;;4976838;28;20231;-84
2022/09/08 14:48:18;;;;;;;3.27;1.00;;;;;;;;;;4977976;28;20200;-84
2022/09/08 14:51:11;;;;;;;4.20;1.70;;;;;;;;;;4994534;28;20227;-84
2022/09/08 14:53:58;;;;;;;4.43;2.53;;;;;;;;;;4994426;28;20232;-84
2022/09/08 14:56:30;;;;;;;3.67;2.17;;;;;;;;;;4977885;28;20228;-84
2022/09/08 14:59:03;;;;;;;1.83;1.50;;;;;;;;;;4977318;28;20228;-84
2022/09/08 15:01:33;;;;;;;2.70;2.00;;;;;;;;;;4976049;28;20225;-84
2022/09/08 15:04:03;;;;;;;7.53;2.87;;;;;;;;;;4977187;28;20195;-84
2022/09/08 15:06:38;;;;;;;7.17;2.87;;;;;;;;;;4977195;28;20267;-84
2022/09/08 15:09:25;;;;;;;1.27;1.00;;;;;;;;;;4977475;28;20239;-84
2022/09/08 15:11:56;;;;;;;4.23;1.17;;;;;;;;;;4976979;28;20326;-84
2022/09/08 15:14:27;;;;;;;2.83;0.70;;;;;;;;;;4994434;28;20210;-84
2022/09/08 15:16:57;;;;;;;7.57;1.97;;;;;;;;;;4964723;28;20231;-84
2022/09/08 15:19:27;;;;;;;1.13;1.03;;;;;;;;;;4990011;28;20222;-84
2022/09/08 15:21:58;;;;;;;3.87;2.07;;;;;;;;;;4994566;28;20242;-84
2022/09/08 15:24:44;;;;;;;2.30;1.63;;;;;;;;;;4994357;28;20203;-84
2022/09/08 15:27:17;;;;;;;2.93;0.83;;;;;;;;;;4994281;28;20223;-84
2022/09/08 15:29:55;;;;;;;2.10;1.27;;;;;;;;;;4977156;28;20405;-84